sensor_id;sensor_type;location;lat;lon;timestamp;P1;durP1;ratioP1;P2;durP2;ratioP2
38581;SDS011;24349;53.720;10.014;2022-07-22T00:00:13;29.42;;;26.25;;
38581;SDS011;24349;53.720;10.014;2022-07-22T00:02:40;36.53;;;28.75;;
38581;SDS011;24349;53.720;10.014;2022-07-22T00:05:06;40.83;;;29.98;;
38581;SDS011;24349;53.720;10.014;2022-07-22T00:07:32;40.33;;;27.58;;
38581;SDS011;24349;53.720;10.014;2022-07-22T00:09:58;43.05;;;28.63;;
38581;SDS011;24349;53.720;10.014;2022-07-22T00:12:23;32.65;;;23.30;;
38581;SDS011;24349;53.720;10.014;2022-07-22T00:14:49;36.08;;;22.83;;
38581;SDS011;24349;53.720;10.014;2022-07-22T00:17:15;27.80;;;17.45;;
38581;SDS011;24349;53.720;10.014;2022-07-22T00:19:40;25.92;;;16.33;;
38581;SDS011;24349;53.720;10.014;2022-07-22T00:22:06;25.27;;;15.30;;
38581;SDS011;24349;53.720;10.014;2022-07-22T00:24:32;25.45;;;15.10;;
38581;SDS011;24349;53.720;10.014;2022-07-22T00:26:57;19.02;;;12.75;;
38581;SDS011;24349;53.720;10.014;2022-07-22T00:29:23;19.48;;;12.35;;
38581;SDS011;24349;53.720;10.014;2022-07-22T00:31:49;17.67;;;11.10;;
38581;SDS011;24349;53.720;10.014;2022-07-22T00:34:14;16.42;;;9.48;;
38581;SDS011;24349;53.720;10.014;2022-07-22T00:36:40;17.35;;;8.43;;
38581;SDS011;24349;53.720;10.014;2022-07-22T00:39:06;14.07;;;8.73;;
38581;SDS011;24349;53.720;10.014;2022-07-22T00:41:31;15.18;;;8.07;;
38581;SDS011;24349;53.720;10.014;2022-07-22T00:44:02;13.40;;;7.95;;
38581;SDS011;24349;53.720;10.014;2022-07-22T00:46:30;10.82;;;6.57;;
38581;SDS011;24349;53.720;10.014;2022-07-22T00:48:57;11.02;;;5.90;;
38581;SDS011;24349;53.720;10.014;2022-07-22T00:51:24;10.65;;;5.60;;
38581;SDS011;24349;53.720;10.014;2022-07-22T00:53:51;7.90;;;3.78;;
38581;SDS011;24349;53.720;10.014;2022-07-22T00:56:17;6.60;;;3.50;;
38581;SDS011;24349;53.720;10.014;2022-07-22T00:58:44;6.40;;;3.90;;
38581;SDS011;24349;53.720;10.014;2022-07-22T01:01:11;8.10;;;3.78;;
38581;SDS011;24349;53.720;10.014;2022-07-22T01:03:38;6.22;;;3.22;;
38581;SDS011;24349;53.720;10.014;2022-07-22T01:06:03;8.38;;;3.28;;
38581;SDS011;24349;53.720;10.014;2022-07-22T01:08:31;6.82;;;3.65;;
38581;SDS011;24349;53.720;10.014;2022-07-22T01:11:10;7.68;;;3.53;;
38581;SDS011;24349;53.720;10.014;2022-07-22T01:16:08;6.70;;;3.40;;
38581;SDS011;24349;53.720;10.014;2022-07-22T01:18:35;6.50;;;3.45;;
38581;SDS011;24349;53.720;10.014;2022-07-22T01:21:02;9.00;;;3.97;;
38581;SDS011;24349;53.720;10.014;2022-07-22T01:23:29;9.50;;;4.43;;
38581;SDS011;24349;53.720;10.014;2022-07-22T01:25:55;11.20;;;3.60;;
38581;SDS011;24349;53.720;10.014;2022-07-22T01:28:20;11.85;;;4.10;;
38581;SDS011;24349;53.720;10.014;2022-07-22T01:30:46;10.63;;;4.10;;
38581;SDS011;24349;53.720;10.014;2022-07-22T01:33:14;7.95;;;3.67;;
38581;SDS011;24349;53.720;10.014;2022-07-22T01:35:44;9.35;;;3.53;;
38581;SDS011;24349;53.720;10.014;2022-07-22T01:38:10;10.45;;;3.92;;
38581;SDS011;24349;53.720;10.014;2022-07-22T01:40:36;9.00;;;3.35;;
38581;SDS011;24349;53.720;10.014;2022-07-22T01:43:02;8.55;;;2.83;;
38581;SDS011;24349;53.720;10.014;2022-07-22T01:45:28;9.95;;;3.20;;
38581;SDS011;24349;53.720;10.014;2022-07-22T01:47:54;8.07;;;3.40;;
38581;SDS011;24349;53.720;10.014;2022-07-22T01:50:19;9.40;;;2.97;;
38581;SDS011;24349;53.720;10.014;2022-07-22T01:52:45;9.20;;;3.10;;
38581;SDS011;24349;53.720;10.014;2022-07-22T01:55:11;10.32;;;3.65;;
38581;SDS011;24349;53.720;10.014;2022-07-22T01:57:37;8.55;;;3.70;;
38581;SDS011;24349;53.720;10.014;2022-07-22T02:00:07;9.52;;;4.60;;
38581;SDS011;24349;53.720;10.014;2022-07-22T02:02:34;10.07;;;3.55;;
38581;SDS011;24349;53.720;10.014;2022-07-22T02:05:02;10.55;;;4.75;;
38581;SDS011;24349;53.720;10.014;2022-07-22T02:07:29;15.50;;;6.32;;
38581;SDS011;24349;53.720;10.014;2022-07-22T02:09:54;10.65;;;5.43;;
38581;SDS011;24349;53.720;10.014;2022-07-22T02:12:20;11.43;;;5.47;;
38581;SDS011;24349;53.720;10.014;2022-07-22T02:14:46;15.93;;;6.03;;
38581;SDS011;24349;53.720;10.014;2022-07-22T02:17:12;14.10;;;5.68;;
38581;SDS011;24349;53.720;10.014;2022-07-22T02:19:38;14.38;;;6.25;;
38581;SDS011;24349;53.720;10.014;2022-07-22T02:22:04;14.50;;;5.95;;
38581;SDS011;24349;53.720;10.014;2022-07-22T02:24:30;16.80;;;6.57;;
38581;SDS011;24349;53.720;10.014;2022-07-22T02:26:56;14.70;;;7.00;;
38581;SDS011;24349;53.720;10.014;2022-07-22T02:29:21;13.10;;;6.95;;
38581;SDS011;24349;53.720;10.014;2022-07-22T02:31:47;14.73;;;7.82;;
38581;SDS011;24349;53.720;10.014;2022-07-22T02:34:13;13.30;;;7.63;;
38581;SDS011;24349;53.720;10.014;2022-07-22T02:36:39;14.43;;;7.93;;
38581;SDS011;24349;53.720;10.014;2022-07-22T02:39:06;13.90;;;7.57;;
38581;SDS011;24349;53.720;10.014;2022-07-22T02:41:32;13.32;;;8.13;;
38581;SDS011;24349;53.720;10.014;2022-07-22T02:43:58;16.75;;;8.63;;
38581;SDS011;24349;53.720;10.014;2022-07-22T02:46:24;16.38;;;8.23;;
38581;SDS011;24349;53.720;10.014;2022-07-22T02:48:51;15.18;;;7.90;;
38581;SDS011;24349;53.720;10.014;2022-07-22T02:51:17;13.02;;;7.20;;
38581;SDS011;24349;53.720;10.014;2022-07-22T02:53:42;17.63;;;7.93;;
38581;SDS011;24349;53.720;10.014;2022-07-22T02:56:08;17.83;;;7.95;;
38581;SDS011;24349;53.720;10.014;2022-07-22T02:58:34;14.88;;;7.13;;
38581;SDS011;24349;53.720;10.014;2022-07-22T03:00:59;16.55;;;8.45;;
38581;SDS011;24349;53.720;10.014;2022-07-22T03:03:25;16.67;;;7.35;;
38581;SDS011;24349;53.720;10.014;2022-07-22T03:05:51;15.15;;;6.72;;
38581;SDS011;24349;53.720;10.014;2022-07-22T03:08:16;17.55;;;7.47;;
38581;SDS011;24349;53.720;10.014;2022-07-22T03:10:42;13.05;;;6.25;;
38581;SDS011;24349;53.720;10.014;2022-07-22T03:13:08;13.85;;;5.85;;
38581;SDS011;24349;53.720;10.014;2022-07-22T03:15:34;15.10;;;5.30;;
38581;SDS011;24349;53.720;10.014;2022-07-22T03:17:59;11.88;;;5.80;;
38581;SDS011;24349;53.720;10.014;2022-07-22T03:20:25;15.35;;;5.47;;
38581;SDS011;24349;53.720;10.014;2022-07-22T03:22:51;13.25;;;6.03;;
38581;SDS011;24349;53.720;10.014;2022-07-22T03:25:17;16.23;;;6.28;;
38581;SDS011;24349;53.720;10.014;2022-07-22T03:27:43;12.65;;;5.07;;
38581;SDS011;24349;53.720;10.014;2022-07-22T03:30:09;13.77;;;5.30;;
38581;SDS011;24349;53.720;10.014;2022-07-22T03:32:35;15.18;;;5.40;;
38581;SDS011;24349;53.720;10.014;2022-07-22T03:35:01;12.48;;;4.90;;
38581;SDS011;24349;53.720;10.014;2022-07-22T03:37:26;11.27;;;4.40;;
38581;SDS011;24349;53.720;10.014;2022-07-22T03:39:52;12.02;;;4.20;;
38581;SDS011;24349;53.720;10.014;2022-07-22T03:42:18;12.90;;;4.63;;
38581;SDS011;24349;53.720;10.014;2022-07-22T03:44:43;16.13;;;4.68;;
38581;SDS011;24349;53.720;10.014;2022-07-22T03:47:09;12.73;;;4.80;;
38581;SDS011;24349;53.720;10.014;2022-07-22T03:49:35;10.95;;;4.10;;
38581;SDS011;24349;53.720;10.014;2022-07-22T03:52:00;11.82;;;3.90;;
38581;SDS011;24349;53.720;10.014;2022-07-22T03:54:26;13.15;;;4.05;;
38581;SDS011;24349;53.720;10.014;2022-07-22T03:56:51;12.00;;;4.60;;
38581;SDS011;24349;53.720;10.014;2022-07-22T03:59:17;14.15;;;3.97;;
38581;SDS011;24349;53.720;10.014;2022-07-22T04:01:43;8.52;;;2.67;;
38581;SDS011;24349;53.720;10.014;2022-07-22T04:04:08;11.18;;;3.70;;
38581;SDS011;24349;53.720;10.014;2022-07-22T04:06:34;9.07;;;3.83;;
38581;SDS011;24349;53.720;10.014;2022-07-22T04:09:00;9.55;;;3.63;;
38581;SDS011;24349;53.720;10.014;2022-07-22T04:11:25;9.27;;;4.05;;
38581;SDS011;24349;53.720;10.014;2022-07-22T04:13:52;10.77;;;3.55;;
38581;SDS011;24349;53.720;10.014;2022-07-22T04:16:17;9.73;;;3.70;;
38581;SDS011;24349;53.720;10.014;2022-07-22T04:18:43;11.93;;;4.00;;
38581;SDS011;24349;53.720;10.014;2022-07-22T04:21:09;14.60;;;4.30;;
38581;SDS011;24349;53.720;10.014;2022-07-22T04:23:35;9.68;;;3.60;;
38581;SDS011;24349;53.720;10.014;2022-07-22T04:26:00;10.63;;;3.10;;
38581;SDS011;24349;53.720;10.014;2022-07-22T04:28:26;10.90;;;3.40;;
38581;SDS011;24349;53.720;10.014;2022-07-22T04:30:52;11.75;;;3.58;;
38581;SDS011;24349;53.720;10.014;2022-07-22T04:33:17;12.02;;;3.42;;
38581;SDS011;24349;53.720;10.014;2022-07-22T04:35:43;11.23;;;3.30;;
38581;SDS011;24349;53.720;10.014;2022-07-22T04:38:09;9.52;;;3.90;;
38581;SDS011;24349;53.720;10.014;2022-07-22T04:40:35;10.35;;;3.67;;
38581;SDS011;24349;53.720;10.014;2022-07-22T04:43:01;10.35;;;3.70;;
38581;SDS011;24349;53.720;10.014;2022-07-22T04:45:26;12.45;;;3.40;;
38581;SDS011;24349;53.720;10.014;2022-07-22T04:47:52;7.47;;;3.55;;
38581;SDS011;24349;53.720;10.014;2022-07-22T04:50:18;11.55;;;4.50;;
38581;SDS011;24349;53.720;10.014;2022-07-22T04:52:43;11.55;;;4.60;;
38581;SDS011;24349;53.720;10.014;2022-07-22T04:55:09;11.90;;;5.57;;
38581;SDS011;24349;53.720;10.014;2022-07-22T04:57:35;14.70;;;5.40;;
38581;SDS011;24349;53.720;10.014;2022-07-22T05:00:00;14.00;;;5.53;;
38581;SDS011;24349;53.720;10.014;2022-07-22T05:02:26;17.05;;;5.65;;
38581;SDS011;24349;53.720;10.014;2022-07-22T05:04:52;13.68;;;5.40;;
38581;SDS011;24349;53.720;10.014;2022-07-22T05:07:17;12.15;;;3.85;;
38581;SDS011;24349;53.720;10.014;2022-07-22T05:09:43;8.77;;;4.10;;
38581;SDS011;24349;53.720;10.014;2022-07-22T05:12:09;10.38;;;5.18;;
38581;SDS011;24349;53.720;10.014;2022-07-22T05:14:34;14.95;;;4.70;;
38581;SDS011;24349;53.720;10.014;2022-07-22T05:17:00;10.55;;;4.30;;
38581;SDS011;24349;53.720;10.014;2022-07-22T05:19:26;10.30;;;3.70;;
38581;SDS011;24349;53.720;10.014;2022-07-22T05:21:52;14.95;;;5.15;;
38581;SDS011;24349;53.720;10.014;2022-07-22T05:24:17;9.13;;;4.15;;
38581;SDS011;24349;53.720;10.014;2022-07-22T05:26:43;12.25;;;4.53;;
38581;SDS011;24349;53.720;10.014;2022-07-22T05:29:09;14.25;;;5.53;;
38581;SDS011;24349;53.720;10.014;2022-07-22T05:31:34;16.45;;;4.80;;
38581;SDS011;24349;53.720;10.014;2022-07-22T05:34:00;15.30;;;5.80;;
38581;SDS011;24349;53.720;10.014;2022-07-22T05:36:26;13.23;;;4.65;;
38581;SDS011;24349;53.720;10.014;2022-07-22T05:38:51;11.15;;;4.68;;
38581;SDS011;24349;53.720;10.014;2022-07-22T05:41:17;15.82;;;5.05;;
38581;SDS011;24349;53.720;10.014;2022-07-22T05:43:43;15.93;;;5.20;;
38581;SDS011;24349;53.720;10.014;2022-07-22T05:46:08;11.13;;;4.75;;
38581;SDS011;24349;53.720;10.014;2022-07-22T05:48:34;13.40;;;5.05;;
38581;SDS011;24349;53.720;10.014;2022-07-22T05:51:00;15.00;;;5.85;;
38581;SDS011;24349;53.720;10.014;2022-07-22T05:53:26;17.38;;;5.45;;
38581;SDS011;24349;53.720;10.014;2022-07-22T05:55:51;16.20;;;5.47;;
38581;SDS011;24349;53.720;10.014;2022-07-22T05:58:17;14.90;;;6.22;;
38581;SDS011;24349;53.720;10.014;2022-07-22T06:00:43;16.67;;;5.55;;
38581;SDS011;24349;53.720;10.014;2022-07-22T06:03:08;13.98;;;5.68;;
38581;SDS011;24349;53.720;10.014;2022-07-22T06:05:34;16.25;;;6.00;;
38581;SDS011;24349;53.720;10.014;2022-07-22T06:08:03;16.83;;;5.45;;
38581;SDS011;24349;53.720;10.014;2022-07-22T06:10:29;16.25;;;5.38;;
38581;SDS011;24349;53.720;10.014;2022-07-22T06:12:55;15.40;;;5.03;;
38581;SDS011;24349;53.720;10.014;2022-07-22T06:15:20;21.35;;;5.38;;
38581;SDS011;24349;53.720;10.014;2022-07-22T06:17:46;13.95;;;5.18;;
38581;SDS011;24349;53.720;10.014;2022-07-22T06:20:12;15.10;;;5.50;;
38581;SDS011;24349;53.720;10.014;2022-07-22T06:22:39;15.88;;;5.25;;
38581;SDS011;24349;53.720;10.014;2022-07-22T06:25:05;14.00;;;5.47;;
38581;SDS011;24349;53.720;10.014;2022-07-22T06:27:31;17.20;;;5.85;;
38581;SDS011;24349;53.720;10.014;2022-07-22T06:29:57;17.08;;;5.72;;
38581;SDS011;24349;53.720;10.014;2022-07-22T06:32:23;15.13;;;5.50;;
38581;SDS011;24349;53.720;10.014;2022-07-22T06:34:48;15.00;;;5.68;;
38581;SDS011;24349;53.720;10.014;2022-07-22T06:37:14;20.02;;;6.68;;
38581;SDS011;24349;53.720;10.014;2022-07-22T06:39:40;18.00;;;5.32;;
38581;SDS011;24349;53.720;10.014;2022-07-22T06:42:06;12.82;;;5.70;;
38581;SDS011;24349;53.720;10.014;2022-07-22T06:44:31;14.52;;;5.07;;
38581;SDS011;24349;53.720;10.014;2022-07-22T06:46:57;13.85;;;5.32;;
38581;SDS011;24349;53.720;10.014;2022-07-22T06:49:22;18.73;;;5.03;;
38581;SDS011;24349;53.720;10.014;2022-07-22T06:51:48;15.07;;;4.88;;
38581;SDS011;24349;53.720;10.014;2022-07-22T06:54:14;13.95;;;4.93;;
38581;SDS011;24349;53.720;10.014;2022-07-22T06:56:39;15.82;;;4.90;;
38581;SDS011;24349;53.720;10.014;2022-07-22T06:59:05;13.82;;;4.97;;
38581;SDS011;24349;53.720;10.014;2022-07-22T07:01:30;12.63;;;4.38;;
38581;SDS011;24349;53.720;10.014;2022-07-22T07:03:56;15.15;;;4.32;;
38581;SDS011;24349;53.720;10.014;2022-07-22T07:06:22;14.25;;;4.72;;
38581;SDS011;24349;53.720;10.014;2022-07-22T07:08:48;13.70;;;3.85;;
38581;SDS011;24349;53.720;10.014;2022-07-22T07:11:13;13.65;;;4.22;;
38581;SDS011;24349;53.720;10.014;2022-07-22T07:13:39;16.13;;;4.45;;
38581;SDS011;24349;53.720;10.014;2022-07-22T07:16:05;13.45;;;4.55;;
38581;SDS011;24349;53.720;10.014;2022-07-22T07:18:30;14.50;;;4.35;;
38581;SDS011;24349;53.720;10.014;2022-07-22T07:20:56;19.98;;;4.40;;
38581;SDS011;24349;53.720;10.014;2022-07-22T07:23:22;11.57;;;3.78;;
38581;SDS011;24349;53.720;10.014;2022-07-22T07:25:48;19.00;;;4.90;;
38581;SDS011;24349;53.720;10.014;2022-07-22T07:28:14;16.70;;;4.82;;
38581;SDS011;24349;53.720;10.014;2022-07-22T07:30:40;17.27;;;5.00;;
38581;SDS011;24349;53.720;10.014;2022-07-22T07:33:06;17.27;;;4.50;;
38581;SDS011;24349;53.720;10.014;2022-07-22T07:35:32;19.83;;;4.65;;
38581;SDS011;24349;53.720;10.014;2022-07-22T07:37:58;18.73;;;4.78;;
38581;SDS011;24349;53.720;10.014;2022-07-22T07:40:24;17.63;;;4.90;;
38581;SDS011;24349;53.720;10.014;2022-07-22T07:42:50;13.00;;;4.10;;
38581;SDS011;24349;53.720;10.014;2022-07-22T07:45:16;17.98;;;4.47;;
38581;SDS011;24349;53.720;10.014;2022-07-22T07:47:41;21.13;;;4.80;;
38581;SDS011;24349;53.720;10.014;2022-07-22T07:50:07;15.25;;;4.30;;
38581;SDS011;24349;53.720;10.014;2022-07-22T07:52:37;22.40;;;4.68;;
38581;SDS011;24349;53.720;10.014;2022-07-22T07:55:05;13.05;;;4.50;;
38581;SDS011;24349;53.720;10.014;2022-07-22T07:57:31;14.35;;;4.15;;
38581;SDS011;24349;53.720;10.014;2022-07-22T07:59:57;14.20;;;3.88;;
38581;SDS011;24349;53.720;10.014;2022-07-22T08:02:23;21.20;;;3.90;;
38581;SDS011;24349;53.720;10.014;2022-07-22T08:04:49;12.65;;;4.00;;
38581;SDS011;24349;53.720;10.014;2022-07-22T08:07:14;12.93;;;3.55;;
38581;SDS011;24349;53.720;10.014;2022-07-22T08:09:40;12.80;;;3.72;;
38581;SDS011;24349;53.720;10.014;2022-07-22T08:12:06;11.43;;;3.30;;
38581;SDS011;24349;53.720;10.014;2022-07-22T08:14:32;14.95;;;3.47;;
38581;SDS011;24349;53.720;10.014;2022-07-22T08:16:58;13.43;;;3.10;;
38581;SDS011;24349;53.720;10.014;2022-07-22T08:19:24;10.65;;;2.42;;
38581;SDS011;24349;53.720;10.014;2022-07-22T08:21:49;9.65;;;2.90;;
38581;SDS011;24349;53.720;10.014;2022-07-22T08:24:15;7.10;;;2.40;;
38581;SDS011;24349;53.720;10.014;2022-07-22T08:26:41;9.13;;;2.55;;
38581;SDS011;24349;53.720;10.014;2022-07-22T08:29:06;8.25;;;2.30;;
38581;SDS011;24349;53.720;10.014;2022-07-22T08:31:34;11.02;;;2.38;;
38581;SDS011;24349;53.720;10.014;2022-07-22T08:34:01;8.52;;;2.40;;
38581;SDS011;24349;53.720;10.014;2022-07-22T08:36:28;10.18;;;2.72;;
38581;SDS011;24349;53.720;10.014;2022-07-22T08:38:54;9.10;;;2.55;;
38581;SDS011;24349;53.720;10.014;2022-07-22T08:41:21;8.95;;;2.60;;
38581;SDS011;24349;53.720;10.014;2022-07-22T08:43:48;10.48;;;2.30;;
38581;SDS011;24349;53.720;10.014;2022-07-22T08:46:13;12.85;;;2.60;;
38581;SDS011;24349;53.720;10.014;2022-07-22T08:48:39;11.60;;;3.45;;
38581;SDS011;24349;53.720;10.014;2022-07-22T08:51:05;9.52;;;2.70;;
38581;SDS011;24349;53.720;10.014;2022-07-22T08:53:31;12.55;;;2.80;;
38581;SDS011;24349;53.720;10.014;2022-07-22T08:55:57;9.32;;;2.33;;
38581;SDS011;24349;53.720;10.014;2022-07-22T08:58:24;12.93;;;2.95;;
38581;SDS011;24349;53.720;10.014;2022-07-22T09:01:06;11.32;;;3.03;;
38581;SDS011;24349;53.720;10.014;2022-07-22T09:03:35;14.23;;;3.00;;
38581;SDS011;24349;53.720;10.014;2022-07-22T09:06:16;12.57;;;2.55;;
38581;SDS011;24349;53.720;10.014;2022-07-22T09:08:54;9.80;;;2.40;;
38581;SDS011;24349;53.720;10.014;2022-07-22T09:11:24;11.00;;;2.70;;
38581;SDS011;24349;53.720;10.014;2022-07-22T09:13:51;11.55;;;2.80;;
38581;SDS011;24349;53.720;10.014;2022-07-22T09:16:37;11.98;;;3.15;;
38581;SDS011;24349;53.720;10.014;2022-07-22T09:19:13;13.27;;;2.78;;
38581;SDS011;24349;53.720;10.014;2022-07-22T09:21:43;9.82;;;2.30;;
38581;SDS011;24349;53.720;10.014;2022-07-22T09:24:27;11.82;;;2.30;;
38581;SDS011;24349;53.720;10.014;2022-07-22T09:26:54;9.63;;;2.33;;
38581;SDS011;24349;53.720;10.014;2022-07-22T09:29:21;9.02;;;2.08;;
38581;SDS011;24349;53.720;10.014;2022-07-22T09:31:49;7.90;;;2.45;;
38581;SDS011;24349;53.720;10.014;2022-07-22T09:34:26;11.48;;;2.35;;
38581;SDS011;24349;53.720;10.014;2022-07-22T09:36:54;9.82;;;2.42;;
38581;SDS011;24349;53.720;10.014;2022-07-22T09:39:27;10.27;;;2.65;;
38581;SDS011;24349;53.720;10.014;2022-07-22T09:42:01;12.40;;;2.42;;
38581;SDS011;24349;53.720;10.014;2022-07-22T09:44:28;9.45;;;2.25;;
38581;SDS011;24349;53.720;10.014;2022-07-22T09:46:54;9.32;;;2.33;;
38581;SDS011;24349;53.720;10.014;2022-07-22T09:49:33;9.65;;;2.28;;
38581;SDS011;24349;53.720;10.014;2022-07-22T09:52:01;9.23;;;2.38;;
38581;SDS011;24349;53.720;10.014;2022-07-22T09:54:30;8.25;;;2.33;;
38581;SDS011;24349;53.720;10.014;2022-07-22T09:56:57;9.43;;;2.35;;
38581;SDS011;24349;53.720;10.014;2022-07-22T09:59:23;10.73;;;2.38;;
38581;SDS011;24349;53.720;10.014;2022-07-22T10:01:50;9.57;;;2.03;;
38581;SDS011;24349;53.720;10.014;2022-07-22T10:04:19;10.77;;;2.75;;
38581;SDS011;24349;53.720;10.014;2022-07-22T10:06:47;8.35;;;2.17;;
38581;SDS011;24349;53.720;10.014;2022-07-22T10:09:13;10.73;;;2.47;;
38581;SDS011;24349;53.720;10.014;2022-07-22T10:11:40;10.30;;;2.47;;
38581;SDS011;24349;53.720;10.014;2022-07-22T10:14:13;8.60;;;2.22;;
38581;SDS011;24349;53.720;10.014;2022-07-22T10:16:41;10.15;;;2.20;;
38581;SDS011;24349;53.720;10.014;2022-07-22T10:19:08;9.48;;;2.30;;
38581;SDS011;24349;53.720;10.014;2022-07-22T10:21:35;8.00;;;2.30;;
38581;SDS011;24349;53.720;10.014;2022-07-22T10:24:08;8.32;;;2.33;;
38581;SDS011;24349;53.720;10.014;2022-07-22T10:26:51;9.82;;;2.15;;
38581;SDS011;24349;53.720;10.014;2022-07-22T10:34:40;9.48;;;2.22;;
38581;SDS011;24349;53.720;10.014;2022-07-22T10:40:17;10.20;;;2.75;;
38581;SDS011;24349;53.720;10.014;2022-07-22T10:45:28;10.02;;;2.47;;
38581;SDS011;24349;53.720;10.014;2022-07-22T10:48:04;7.90;;;2.42;;
38581;SDS011;24349;53.720;10.014;2022-07-22T10:53:05;10.80;;;2.22;;
38581;SDS011;24349;53.720;10.014;2022-07-22T10:55:35;6.63;;;2.00;;
38581;SDS011;24349;53.720;10.014;2022-07-22T11:00:59;10.52;;;2.20;;
38581;SDS011;24349;53.720;10.014;2022-07-22T11:03:29;6.40;;;1.80;;
38581;SDS011;24349;53.720;10.014;2022-07-22T11:05:56;9.23;;;1.80;;
38581;SDS011;24349;53.720;10.014;2022-07-22T11:08:37;9.25;;;2.03;;
38581;SDS011;24349;53.720;10.014;2022-07-22T11:11:03;8.15;;;1.90;;
38581;SDS011;24349;53.720;10.014;2022-07-22T11:13:32;7.78;;;1.80;;
38581;SDS011;24349;53.720;10.014;2022-07-22T11:18:49;8.93;;;2.15;;
38581;SDS011;24349;53.720;10.014;2022-07-22T11:21:26;9.88;;;2.30;;
38581;SDS011;24349;53.720;10.014;2022-07-22T11:23:54;7.38;;;2.05;;
38581;SDS011;24349;53.720;10.014;2022-07-22T11:29:07;8.50;;;2.17;;
38581;SDS011;24349;53.720;10.014;2022-07-22T11:31:35;6.72;;;1.92;;
38581;SDS011;24349;53.720;10.014;2022-07-22T11:34:05;9.05;;;2.88;;
38581;SDS011;24349;53.720;10.014;2022-07-22T11:36:35;9.75;;;2.08;;
38581;SDS011;24349;53.720;10.014;2022-07-22T11:39:02;8.00;;;1.95;;
38581;SDS011;24349;53.720;10.014;2022-07-22T11:41:29;8.52;;;1.98;;
38581;SDS011;24349;53.720;10.014;2022-07-22T11:43:56;6.65;;;1.98;;
38581;SDS011;24349;53.720;10.014;2022-07-22T11:46:23;7.80;;;2.35;;
38581;SDS011;24349;53.720;10.014;2022-07-22T11:48:51;7.13;;;1.98;;
38581;SDS011;24349;53.720;10.014;2022-07-22T11:51:26;7.10;;;2.17;;
38581;SDS011;24349;53.720;10.014;2022-07-22T11:56:19;7.40;;;2.08;;
38581;SDS011;24349;53.720;10.014;2022-07-22T11:58:46;10.20;;;2.38;;
38581;SDS011;24349;53.720;10.014;2022-07-22T12:01:20;7.15;;;1.95;;
38581;SDS011;24349;53.720;10.014;2022-07-22T12:03:49;6.18;;;1.38;;
38581;SDS011;24349;53.720;10.014;2022-07-22T12:06:17;6.70;;;1.60;;
38581;SDS011;24349;53.720;10.014;2022-07-22T12:08:51;6.15;;;1.80;;
38581;SDS011;24349;53.720;10.014;2022-07-22T12:11:42;5.43;;;1.70;;
38581;SDS011;24349;53.720;10.014;2022-07-22T12:14:13;6.53;;;1.70;;
38581;SDS011;24349;53.720;10.014;2022-07-22T12:16:42;8.32;;;1.80;;
38581;SDS011;24349;53.720;10.014;2022-07-22T12:19:10;9.40;;;1.58;;
38581;SDS011;24349;53.720;10.014;2022-07-22T12:21:49;7.82;;;1.73;;
38581;SDS011;24349;53.720;10.014;2022-07-22T12:24:57;4.82;;;1.50;;
38581;SDS011;24349;53.720;10.014;2022-07-22T12:27:16;8.77;;;1.95;;
38581;SDS011;24349;53.720;10.014;2022-07-22T12:29:43;8.35;;;2.15;;
38581;SDS011;24349;53.720;10.014;2022-07-22T12:32:14;6.15;;;1.85;;
38581;SDS011;24349;53.720;10.014;2022-07-22T12:35:00;8.25;;;1.70;;
38581;SDS011;24349;53.720;10.014;2022-07-22T12:37:27;6.60;;;1.90;;
38581;SDS011;24349;53.720;10.014;2022-07-22T12:42:35;9.15;;;1.77;;
38581;SDS011;24349;53.720;10.014;2022-07-22T12:45:15;6.20;;;1.92;;
38581;SDS011;24349;53.720;10.014;2022-07-22T12:47:49;7.90;;;1.88;;
38581;SDS011;24349;53.720;10.014;2022-07-22T12:50:29;8.05;;;1.83;;
38581;SDS011;24349;53.720;10.014;2022-07-22T12:52:58;7.97;;;2.00;;
38581;SDS011;24349;53.720;10.014;2022-07-22T12:55:45;9.32;;;2.05;;
38581;SDS011;24349;53.720;10.014;2022-07-22T12:58:20;10.18;;;1.98;;
38581;SDS011;24349;53.720;10.014;2022-07-22T13:00:51;7.93;;;1.60;;
38581;SDS011;24349;53.720;10.014;2022-07-22T13:03:19;7.88;;;1.70;;
38581;SDS011;24349;53.720;10.014;2022-07-22T13:05:50;7.82;;;2.00;;
38581;SDS011;24349;53.720;10.014;2022-07-22T13:08:17;6.35;;;1.98;;
38581;SDS011;24349;53.720;10.014;2022-07-22T13:10:43;8.90;;;2.00;;
38581;SDS011;24349;53.720;10.014;2022-07-22T13:13:09;7.72;;;1.90;;
38581;SDS011;24349;53.720;10.014;2022-07-22T13:15:35;6.97;;;1.88;;
38581;SDS011;24349;53.720;10.014;2022-07-22T13:18:01;5.88;;;1.77;;
38581;SDS011;24349;53.720;10.014;2022-07-22T13:20:27;6.35;;;1.60;;
38581;SDS011;24349;53.720;10.014;2022-07-22T13:22:53;6.72;;;1.70;;
38581;SDS011;24349;53.720;10.014;2022-07-22T13:25:19;5.28;;;1.55;;
38581;SDS011;24349;53.720;10.014;2022-07-22T13:27:44;7.25;;;1.88;;
38581;SDS011;24349;53.720;10.014;2022-07-22T13:30:10;5.15;;;1.70;;
38581;SDS011;24349;53.720;10.014;2022-07-22T13:32:36;7.40;;;1.63;;
38581;SDS011;24349;53.720;10.014;2022-07-22T13:35:02;6.28;;;1.48;;
38581;SDS011;24349;53.720;10.014;2022-07-22T13:37:28;7.45;;;1.77;;
38581;SDS011;24349;53.720;10.014;2022-07-22T13:39:54;5.47;;;1.40;;
38581;SDS011;24349;53.720;10.014;2022-07-22T13:42:19;5.93;;;1.48;;
38581;SDS011;24349;53.720;10.014;2022-07-22T13:44:45;7.45;;;1.73;;
38581;SDS011;24349;53.720;10.014;2022-07-22T13:47:12;4.55;;;1.30;;
38581;SDS011;24349;53.720;10.014;2022-07-22T13:49:38;5.82;;;1.85;;
38581;SDS011;24349;53.720;10.014;2022-07-22T13:52:04;10.65;;;2.05;;
38581;SDS011;24349;53.720;10.014;2022-07-22T13:54:30;5.70;;;1.85;;
38581;SDS011;24349;53.720;10.014;2022-07-22T13:56:57;8.48;;;2.33;;
38581;SDS011;24349;53.720;10.014;2022-07-22T13:59:26;7.35;;;1.80;;
38581;SDS011;24349;53.720;10.014;2022-07-22T14:01:54;6.03;;;1.83;;
38581;SDS011;24349;53.720;10.014;2022-07-22T14:04:19;4.82;;;1.40;;
38581;SDS011;24349;53.720;10.014;2022-07-22T14:06:45;7.72;;;1.70;;
38581;SDS011;24349;53.720;10.014;2022-07-22T14:09:11;6.40;;;1.90;;
38581;SDS011;24349;53.720;10.014;2022-07-22T14:11:36;7.85;;;1.90;;
38581;SDS011;24349;53.720;10.014;2022-07-22T14:14:02;5.63;;;1.65;;
38581;SDS011;24349;53.720;10.014;2022-07-22T14:16:28;5.75;;;1.50;;
38581;SDS011;24349;53.720;10.014;2022-07-22T14:19:06;9.98;;;2.08;;
38581;SDS011;24349;53.720;10.014;2022-07-22T14:21:37;7.45;;;1.73;;
38581;SDS011;24349;53.720;10.014;2022-07-22T14:24:05;8.77;;;2.10;;
38581;SDS011;24349;53.720;10.014;2022-07-22T14:26:31;7.35;;;1.80;;
38581;SDS011;24349;53.720;10.014;2022-07-22T14:28:58;8.82;;;2.20;;
38581;SDS011;24349;53.720;10.014;2022-07-22T14:31:24;8.27;;;1.75;;
38581;SDS011;24349;53.720;10.014;2022-07-22T14:33:49;7.95;;;1.92;;
38581;SDS011;24349;53.720;10.014;2022-07-22T14:36:15;7.35;;;1.70;;
38581;SDS011;24349;53.720;10.014;2022-07-22T14:38:41;8.32;;;1.88;;
38581;SDS011;24349;53.720;10.014;2022-07-22T14:41:07;9.25;;;2.13;;
38581;SDS011;24349;53.720;10.014;2022-07-22T14:43:36;5.75;;;1.67;;
38581;SDS011;24349;53.720;10.014;2022-07-22T14:46:03;6.45;;;2.00;;
38581;SDS011;24349;53.720;10.014;2022-07-22T14:48:36;7.93;;;1.83;;
38581;SDS011;24349;53.720;10.014;2022-07-22T14:51:03;8.15;;;1.70;;
38581;SDS011;24349;53.720;10.014;2022-07-22T14:53:29;7.25;;;1.75;;
38581;SDS011;24349;53.720;10.014;2022-07-22T14:55:55;9.45;;;1.90;;